logo
Search for airport 
image banner adimage banner adimage banner ad
image banner ad

YHDY - Headingly

Located in Piturie, Australia

ICAO - YHDY, IATA - HIP

Data provided by Airmate  

General information

Coordinates: S21°19'17" E138°17'46"
Elevation is 609 feet MSL.
Magnetic variation is 5° East
View others Airports in Queensland

Operational data

Special qualification required
Current time UTC:
Current local time:
Weather at : - ( 0 km )
METAR: YPJT 171320Z AUTO 27017KT 5000 RA SCT012 SCT020 BKN035 17/16 Q1011
View NOTAMs / SUP AIP / TFR affecting this airport [VIEW]
Communications frequencies: [VIEW]

Runways:

RWY identifierQFULength (ft)Width (ft)SurfaceLDA (ft)
26262°353641DIRT
0882°353641DIRT
17178°553234DIRT
35358°553234DIRT

Airport contact information

Address: Piturie Australia

Satellite view of YHDY